Time;durP1;ratioP1;P1;durP2;ratioP2;P2;SDS_P1;SDS_P2;PMS_P1;PMS_P2;Temp;Humidity;BMP_temperature;BMP_pressure;BME280_temperature;BME280_humidity;BME280_pressure;Samples;Min_cycle;Max_cycle;Signal;HPM_P1;HPM_P2
2022/07/26 00:01:16;;;;;;;11.10;2.83;;;17.90;99.90;;;;;;5034720;28;20057;-76
2022/07/26 00:03:42;;;;;;;11.07;2.97;;;18.00;99.90;;;;;;5029142;28;20056;-76
2022/07/26 00:06:08;;;;;;;9.93;2.80;;;18.00;99.90;;;;;;5035728;28;20057;-77
2022/07/26 00:08:34;;;;;;;12.85;2.78;;;18.10;99.90;;;;;;5027799;28;20044;-76
2022/07/26 00:11:00;;;;;;;8.52;2.50;;;18.00;99.90;;;;;;5041064;28;20132;-76
2022/07/26 00:13:25;;;;;;;7.13;2.50;;;18.00;99.90;;;;;;5042481;28;20451;-77
2022/07/26 00:15:52;;;;;;;12.95;2.85;;;18.00;99.90;;;;;;5029686;28;20610;-76
2022/07/26 00:18:18;;;;;;;10.25;2.53;;;18.00;99.90;;;;;;5026046;28;20091;-76
2022/07/26 00:20:44;;;;;;;11.60;3.00;;;17.90;99.90;;;;;;5036703;28;20559;-76
2022/07/26 00:23:10;;;;;;;10.13;2.45;;;18.00;99.90;;;;;;5032992;28;20046;-75
2022/07/26 00:25:36;;;;;;;8.77;2.33;;;18.00;99.90;;;;;;5030434;28;20072;-75
2022/07/26 00:28:02;;;;;;;11.63;2.80;;;17.90;99.90;;;;;;5016011;28;20103;-76
2022/07/26 00:30:28;;;;;;;8.60;2.10;;;17.90;99.90;;;;;;5033214;28;20053;-75
2022/07/26 00:32:53;;;;;;;8.05;2.40;;;17.90;99.90;;;;;;5039216;28;20041;-75
2022/07/26 00:35:19;;;;;;;5.63;2.35;;;17.80;99.90;;;;;;5039571;28;20041;-75
2022/07/26 00:37:45;;;;;;;10.43;2.30;;;17.80;99.90;;;;;;5017788;28;20148;-75
2022/07/26 00:40:11;;;;;;;6.85;2.53;;;17.80;99.90;;;;;;5029050;28;20416;-76
2022/07/26 00:42:37;;;;;;;9.32;2.35;;;17.80;99.90;;;;;;5040811;28;20042;-77
2022/07/26 00:45:05;;;;;;;4.88;2.30;;;17.80;99.90;;;;;;5052417;28;20045;-76
2022/07/26 00:47:31;;;;;;;9.57;2.60;;;17.80;99.90;;;;;;5014131;28;20034;-75
2022/07/26 00:49:56;;;;;;;6.82;2.42;;;17.80;99.90;;;;;;5036522;28;20057;-77
2022/07/26 00:52:22;;;;;;;8.02;2.92;;;17.70;99.90;;;;;;5047863;28;20528;-76
2022/07/26 00:54:48;;;;;;;5.55;2.47;;;17.70;99.90;;;;;;5034330;28;20044;-76
2022/07/26 00:57:14;;;;;;;6.22;2.33;;;17.70;99.90;;;;;;5014366;28;20061;-76
2022/07/26 00:59:40;;;;;;;9.18;2.60;;;17.70;99.90;;;;;;5048660;28;20099;-76
2022/07/26 01:02:08;;;;;;;5.93;2.60;;;17.70;99.90;;;;;;5046283;28;20091;-75
2022/07/26 01:04:34;;;;;;;7.57;2.70;;;17.70;99.90;;;;;;5037615;28;20170;-76
2022/07/26 01:07:00;;;;;;;7.05;2.28;;;17.70;99.90;;;;;;5033363;28;20488;-77
2022/07/26 01:09:26;;;;;;;7.70;2.22;;;17.70;99.90;;;;;;5047505;28;20140;-77
2022/07/26 01:11:52;;;;;;;5.65;2.10;;;17.70;99.90;;;;;;5044172;28;20132;-76
2022/07/26 01:14:22;;;;;;;6.20;2.28;;;17.70;99.90;;;;;;5041182;28;20044;-76
2022/07/26 01:16:48;;;;;;;10.35;2.78;;;17.70;99.90;;;;;;5037131;28;20053;-76
2022/07/26 01:19:13;;;;;;;4.35;2.10;;;17.70;99.90;;;;;;5042592;28;20118;-76
2022/07/26 01:21:39;;;;;;;5.18;2.85;;;17.70;99.90;;;;;;5022516;28;20435;-75
2022/07/26 01:24:06;;;;;;;5.70;2.50;;;17.70;99.90;;;;;;5043836;28;20041;-75
2022/07/26 01:26:32;;;;;;;7.70;2.45;;;17.70;99.90;;;;;;5019840;28;20084;-76
2022/07/26 01:28:58;;;;;;;5.85;2.10;;;17.70;99.90;;;;;;5044385;28;20047;-76
2022/07/26 01:31:23;;;;;;;6.70;2.30;;;17.70;99.90;;;;;;5048186;28;20462;-76
2022/07/26 01:33:50;;;;;;;10.38;2.58;;;17.60;99.90;;;;;;5032473;28;20049;-76
2022/07/26 01:36:16;;;;;;;7.55;2.65;;;17.60;99.90;;;;;;5021616;28;20060;-77
2022/07/26 01:38:42;;;;;;;5.47;2.10;;;17.60;99.90;;;;;;5027034;28;20053;-76
2022/07/26 01:41:08;;;;;;;7.32;2.55;;;17.60;99.90;;;;;;5033735;28;20085;-75
2022/07/26 01:43:35;;;;;;;6.97;2.53;;;17.50;99.90;;;;;;5039576;28;20085;-76
2022/07/26 01:46:02;;;;;;;8.70;2.60;;;17.50;99.90;;;;;;5048214;28;20559;-76
2022/07/26 01:48:27;;;;;;;6.40;2.53;;;17.50;99.90;;;;;;5028055;28;20474;-76
2022/07/26 01:50:53;;;;;;;7.03;2.35;;;17.50;99.90;;;;;;5031825;28;20053;-76
2022/07/26 01:53:19;;;;;;;5.57;2.72;;;17.40;99.90;;;;;;5041380;28;20048;-76
2022/07/26 01:55:44;;;;;;;6.53;2.63;;;17.40;99.90;;;;;;5037075;28;20052;-75
2022/07/26 01:58:10;;;;;;;6.30;2.50;;;17.40;99.90;;;;;;5015723;28;20049;-76
2022/07/26 02:00:35;;;;;;;5.35;2.05;;;17.40;99.90;;;;;;5048949;28;20041;-75
2022/07/26 02:03:01;;;;;;;9.57;2.90;;;17.40;99.90;;;;;;5049003;28;20479;-76
2022/07/26 02:05:27;;;;;;;8.40;2.60;;;17.40;99.90;;;;;;5038168;28;20521;-76
2022/07/26 02:07:52;;;;;;;7.00;2.78;;;17.40;99.90;;;;;;5036524;28;20040;-76
2022/07/26 02:10:18;;;;;;;7.78;2.78;;;17.40;99.90;;;;;;5052812;28;20049;-76
2022/07/26 02:12:44;;;;;;;7.13;3.00;;;17.40;99.90;;;;;;5040736;28;20041;-76
2022/07/26 02:15:12;;;;;;;6.70;2.80;;;17.30;99.90;;;;;;5050346;28;20052;-71
2022/07/26 02:17:37;;;;;;;7.78;2.55;;;17.30;99.90;;;;;;5014926;28;20071;-73
2022/07/26 02:20:04;;;;;;;6.95;2.00;;;17.10;99.90;;;;;;5030966;28;20049;-73
2022/07/26 02:22:30;;;;;;;6.20;1.83;;;17.00;99.90;;;;;;5039976;28;20083;-72
2022/07/26 02:24:56;;;;;;;9.15;1.85;;;16.90;99.90;;;;;;5038551;28;20566;-72
2022/07/26 02:27:21;;;;;;;3.88;1.58;;;16.70;99.90;;;;;;5019413;28;20404;-72
2022/07/26 02:29:47;;;;;;;5.03;1.70;;;16.70;99.90;;;;;;5047662;28;20048;-74
2022/07/26 02:32:13;;;;;;;4.35;1.67;;;16.70;99.90;;;;;;5039735;28;20063;-71
2022/07/26 02:34:39;;;;;;;9.75;2.20;;;16.60;99.90;;;;;;5047688;28;20467;-73
2022/07/26 02:37:04;;;;;;;9.55;2.10;;;16.50;99.90;;;;;;5035849;28;20110;-73
2022/07/26 02:39:30;;;;;;;7.22;2.30;;;16.50;99.90;;;;;;5046978;28;20041;-74
2022/07/26 02:41:58;;;;;;;8.80;2.10;;;16.50;99.90;;;;;;5030698;28;20052;-74
2022/07/26 02:44:25;;;;;;;8.57;2.38;;;16.50;99.90;;;;;;5048856;28;20056;-74
2022/07/26 02:46:51;;;;;;;9.32;2.35;;;16.50;99.90;;;;;;5035384;28;20397;-73
2022/07/26 02:49:18;;;;;;;9.63;1.90;;;16.50;99.90;;;;;;5049659;28;20052;-73
2022/07/26 02:51:44;;;;;;;8.73;2.33;;;16.50;99.90;;;;;;5050313;28;20065;-74
2022/07/26 02:54:10;;;;;;;11.10;2.53;;;16.50;99.90;;;;;;5036658;28;20095;-76
2022/07/26 02:56:35;;;;;;;8.32;2.20;;;16.40;99.90;;;;;;5027732;28;20045;-76
2022/07/26 02:59:01;;;;;;;10.05;2.30;;;16.50;99.90;;;;;;5029322;28;20045;-74
2022/07/26 03:01:27;;;;;;;8.00;2.20;;;16.40;99.90;;;;;;5031495;28;20065;-74
2022/07/26 03:03:53;;;;;;;11.18;1.88;;;16.50;99.90;;;;;;5044023;28;20111;-74
2022/07/26 03:06:19;;;;;;;8.32;1.85;;;16.40;99.90;;;;;;5042320;28;20045;-74
2022/07/26 03:08:45;;;;;;;7.50;1.40;;;16.40;99.90;;;;;;5044881;28;20057;-74
2022/07/26 03:11:11;;;;;;;12.32;1.85;;;16.40;99.90;;;;;;5049087;28;20110;-76
2022/07/26 03:13:36;;;;;;;5.88;1.33;;;16.40;99.90;;;;;;5034578;28;20456;-75
2022/07/26 03:16:02;;;;;;;6.25;1.33;;;16.40;99.90;;;;;;5041292;28;20053;-75
2022/07/26 03:18:28;;;;;;;8.65;1.50;;;16.40;99.90;;;;;;5014234;28;20488;-74
2022/07/26 03:20:54;;;;;;;11.30;1.70;;;16.30;99.90;;;;;;5031398;28;20057;-74
2022/07/26 03:23:20;;;;;;;7.53;1.48;;;16.30;99.90;;;;;;5029017;28;20492;-74
2022/07/26 03:25:46;;;;;;;7.40;1.60;;;16.30;99.90;;;;;;5036853;28;20045;-74
2022/07/26 03:28:12;;;;;;;7.03;1.50;;;16.30;99.90;;;;;;5023694;28;20057;-74
2022/07/26 03:30:37;;;;;;;6.28;1.13;;;16.30;99.90;;;;;;5029731;28;20493;-74
2022/07/26 03:33:03;;;;;;;5.72;1.13;;;16.30;99.90;;;;;;5030307;28;20787;-75
2022/07/26 03:35:29;;;;;;;8.63;1.30;;;16.30;99.90;;;;;;5039452;28;20049;-75
2022/07/26 03:37:54;;;;;;;8.25;1.38;;;16.30;99.90;;;;;;5000492;28;20194;-75
2022/07/26 03:40:20;;;;;;;8.38;1.33;;;16.30;99.90;;;;;;5040432;28;20052;-74
2022/07/26 03:42:47;;;;;;;6.07;0.98;;;16.20;99.90;;;;;;5045862;28;20099;-75
2022/07/26 03:45:14;;;;;;;7.20;1.48;;;16.20;99.90;;;;;;5039445;28;20534;-75
2022/07/26 03:47:40;;;;;;;7.55;1.17;;;16.20;99.90;;;;;;5034580;28;20037;-75
2022/07/26 03:50:07;;;;;;;6.30;1.02;;;16.20;99.90;;;;;;5048558;28;20167;-75
2022/07/26 03:52:33;;;;;;;7.00;1.00;;;16.20;99.90;;;;;;5050092;28;20060;-75
2022/07/26 03:54:59;;;;;;;12.35;1.23;;;16.20;99.90;;;;;;5049514;28;20040;-75
2022/07/26 03:57:24;;;;;;;4.57;0.75;;;16.10;99.90;;;;;;5021677;28;20044;-76
2022/07/26 03:59:50;;;;;;;6.18;0.90;;;16.10;99.90;;;;;;5049354;28;20040;-76
2022/07/26 04:02:16;;;;;;;4.00;0.80;;;16.10;99.90;;;;;;5045825;28;20045;-74
2022/07/26 04:04:42;;;;;;;10.27;1.23;;;16.10;99.90;;;;;;5039857;28;20052;-75
2022/07/26 04:07:09;;;;;;;4.40;0.85;;;16.10;99.90;;;;;;5029477;28;20067;-74
2022/07/26 04:09:34;;;;;;;7.18;0.95;;;16.10;99.90;;;;;;5034865;28;20048;-75
2022/07/26 04:12:00;;;;;;;5.20;0.70;;;16.10;99.90;;;;;;5040416;28;20400;-74
2022/07/26 04:14:26;;;;;;;6.50;1.02;;;16.10;99.90;;;;;;5040932;28;20139;-75
2022/07/26 04:16:51;;;;;;;9.50;0.80;;;16.10;99.90;;;;;;5033629;28;20049;-76
2022/07/26 04:19:17;;;;;;;5.90;1.02;;;16.00;99.90;;;;;;5028030;28;20077;-75
2022/07/26 04:21:42;;;;;;;6.53;1.08;;;16.00;99.90;;;;;;5028769;28;20037;-74
2022/07/26 04:24:08;;;;;;;6.07;0.90;;;16.00;99.90;;;;;;5029434;28;20049;-74
2022/07/26 04:26:34;;;;;;;5.22;0.70;;;16.00;99.90;;;;;;5020742;28;20041;-76
2022/07/26 04:29:00;;;;;;;6.38;1.05;;;16.00;99.90;;;;;;5043213;28;20105;-75
2022/07/26 04:31:25;;;;;;;4.35;0.77;;;16.00;99.90;;;;;;5031194;28;20049;-76
2022/07/26 04:33:51;;;;;;;9.63;1.25;;;15.90;99.90;;;;;;5040534;28;20142;-75
2022/07/26 04:36:17;;;;;;;7.32;1.35;;;15.90;99.90;;;;;;5020472;28;20128;-78
2022/07/26 04:38:42;;;;;;;5.93;0.85;;;16.00;99.90;;;;;;5025215;28;20061;-77
2022/07/26 04:41:08;;;;;;;7.57;1.13;;;15.90;99.90;;;;;;5043074;28;20061;-76
2022/07/26 04:43:34;;;;;;;8.65;1.00;;;15.90;99.90;;;;;;5049063;28;20576;-76
2022/07/26 04:46:00;;;;;;;9.95;1.13;;;15.90;99.90;;;;;;5048857;28;20040;-76
2022/07/26 04:48:27;;;;;;;6.30;0.93;;;15.90;99.90;;;;;;5033197;28;20072;-77
2022/07/26 04:50:52;;;;;;;5.00;0.93;;;15.90;99.90;;;;;;5039059;28;20714;-76
2022/07/26 04:53:19;;;;;;;3.13;0.63;;;16.00;99.90;;;;;;5034232;28;20233;-76
2022/07/26 04:55:45;;;;;;;7.68;1.00;;;15.90;99.90;;;;;;5050646;28;20057;-76
2022/07/26 04:58:11;;;;;;;4.95;0.85;;;16.00;99.90;;;;;;5039307;28;20037;-76
2022/07/26 05:00:37;;;;;;;8.27;1.10;;;16.00;99.90;;;;;;5055262;28;20053;-76
2022/07/26 05:03:03;;;;;;;6.75;0.70;;;16.00;99.90;;;;;;5045508;28;20413;-76
2022/07/26 05:05:32;;;;;;;5.82;0.70;;;16.00;99.90;;;;;;5034755;28;20053;-76
2022/07/26 05:08:00;;;;;;;7.35;1.10;;;15.90;99.90;;;;;;5024372;28;20516;-75
2022/07/26 05:10:34;;;;;;;3.90;0.80;;;15.80;99.90;;;;;;5042270;28;20049;-78
2022/07/26 05:13:02;;;;;;;6.45;1.08;;;15.60;99.90;;;;;;5057116;28;20040;-77
2022/07/26 05:15:29;;;;;;;5.82;0.80;;;15.50;99.90;;;;;;5054147;28;20124;-76
2022/07/26 05:18:01;;;;;;;4.88;1.00;;;15.50;99.90;;;;;;5018999;28;20040;-75
2022/07/26 05:20:27;;;;;;;3.08;0.52;;;15.50;99.90;;;;;;5034908;28;20095;-75
2022/07/26 05:22:53;;;;;;;6.13;1.00;;;15.50;99.90;;;;;;5028033;28;20140;-75
2022/07/26 05:25:18;;;;;;;4.10;0.60;;;15.50;99.90;;;;;;5037825;28;20057;-75
2022/07/26 05:27:44;;;;;;;6.25;0.82;;;15.50;99.90;;;;;;5021906;28;20045;-76
2022/07/26 05:30:10;;;;;;;3.17;0.75;;;15.50;99.90;;;;;;5056696;28;20041;-77
2022/07/26 05:32:35;;;;;;;5.75;0.60;;;15.50;99.90;;;;;;5053703;28;20106;-76
2022/07/26 05:35:01;;;;;;;2.92;0.50;;;15.50;99.90;;;;;;5049654;28;20046;-76
2022/07/26 05:37:27;;;;;;;5.78;0.75;;;15.60;99.90;;;;;;5019447;28;20141;-76
2022/07/26 05:39:52;;;;;;;4.35;0.50;;;15.60;99.90;;;;;;5042087;28;20150;-77
2022/07/26 05:42:18;;;;;;;5.68;0.73;;;15.70;99.90;;;;;;5040766;28;20056;-76
2022/07/26 05:44:44;;;;;;;5.60;0.50;;;15.70;99.90;;;;;;5052168;28;20040;-77
2022/07/26 05:47:10;;;;;;;7.72;0.93;;;15.70;99.90;;;;;;5039091;28;20126;-76
2022/07/26 05:49:36;;;;;;;6.53;1.00;;;15.70;99.90;;;;;;5044118;28;20060;-76
2022/07/26 05:52:02;;;;;;;4.78;0.60;;;15.70;99.90;;;;;;5036667;28;20470;-76
2022/07/26 05:54:27;;;;;;;4.47;0.65;;;15.80;99.90;;;;;;5046921;28;20049;-76
2022/07/26 05:56:53;;;;;;;6.72;0.57;;;15.80;99.90;;;;;;5028740;28;20079;-77
2022/07/26 05:59:19;;;;;;;4.07;0.65;;;15.90;99.90;;;;;;5050290;28;20068;-77
2022/07/26 06:01:44;;;;;;;8.90;0.80;;;15.90;99.90;;;;;;5048211;28;20094;-76
2022/07/26 06:04:10;;;;;;;4.43;0.70;;;16.00;99.90;;;;;;5048503;28;20048;-76
2022/07/26 06:06:36;;;;;;;6.38;0.80;;;16.00;99.90;;;;;;5027629;28;20080;-77
2022/07/26 06:09:02;;;;;;;5.75;0.85;;;16.10;99.90;;;;;;5049129;28;20047;-76
2022/07/26 06:11:27;;;;;;;4.55;0.90;;;16.10;99.90;;;;;;5045772;28;20037;-76
2022/07/26 06:13:53;;;;;;;6.35;1.20;;;16.10;99.90;;;;;;5037443;28;20053;-77
2022/07/26 06:16:19;;;;;;;6.13;0.85;;;16.10;99.90;;;;;;5033782;28;20053;-77
2022/07/26 06:18:44;;;;;;;6.85;0.85;;;16.10;99.90;;;;;;5044862;28;20044;-75
2022/07/26 06:21:11;;;;;;;6.57;1.08;;;16.10;99.90;;;;;;5052195;28;20053;-76
2022/07/26 06:23:37;;;;;;;6.18;0.80;;;16.00;99.90;;;;;;5048370;28;20136;-76
2022/07/26 06:26:04;;;;;;;9.25;1.00;;;16.10;99.90;;;;;;5031197;28;20144;-75
2022/07/26 06:28:30;;;;;;;5.50;1.15;;;16.10;99.90;;;;;;5026173;28;20123;-77
2022/07/26 06:30:55;;;;;;;4.68;0.75;;;16.10;99.90;;;;;;5031249;28;20492;-77
2022/07/26 06:33:21;;;;;;;3.47;0.57;;;16.10;99.90;;;;;;5050166;28;20120;-77
2022/07/26 06:35:46;;;;;;;5.60;0.90;;;16.20;99.90;;;;;;5050754;28;20045;-77
2022/07/26 06:38:12;;;;;;;6.65;0.77;;;16.30;99.90;;;;;;5035092;28;20057;-76
2022/07/26 06:40:38;;;;;;;6.45;0.70;;;16.30;99.90;;;;;;5037292;28;20053;-76
2022/07/26 06:43:04;;;;;;;4.97;0.68;;;16.40;99.90;;;;;;5038125;28;20063;-76
2022/07/26 06:45:29;;;;;;;6.60;0.68;;;16.40;99.90;;;;;;5031584;28;20128;-78
2022/07/26 06:47:55;;;;;;;5.45;0.63;;;16.50;99.90;;;;;;5001767;28;20037;-78
2022/07/26 06:50:22;;;;;;;3.60;0.60;;;16.40;99.90;;;;;;5050850;28;20045;-77
2022/07/26 06:52:47;;;;;;;5.32;0.80;;;16.20;99.90;;;;;;5049871;28;20484;-79
2022/07/26 06:55:13;;;;;;;6.32;0.70;;;16.20;99.90;;;;;;5050448;28;20059;-77
2022/07/26 06:57:39;;;;;;;1.90;0.50;;;16.20;99.90;;;;;;5034442;28;20041;-76
2022/07/26 07:00:07;;;;;;;6.18;0.80;;;16.20;99.90;;;;;;5050234;28;20037;-76
2022/07/26 07:02:33;;;;;;;7.75;1.20;;;16.30;99.90;;;;;;5045078;28;20045;-76
2022/07/26 07:04:59;;;;;;;5.85;0.88;;;16.30;99.90;;;;;;5042603;28;20470;-76
2022/07/26 07:07:25;;;;;;;7.60;1.15;;;16.20;99.90;;;;;;5034763;28;20064;-75
2022/07/26 07:09:50;;;;;;;4.25;1.17;;;16.20;99.90;;;;;;5049704;28;20045;-76
2022/07/26 07:12:16;;;;;;;8.02;0.63;;;16.20;99.90;;;;;;5036720;28;20408;-77
2022/07/26 07:14:42;;;;;;;6.45;0.88;;;16.30;99.90;;;;;;5039195;28;20087;-77
2022/07/26 07:17:08;;;;;;;7.00;1.10;;;16.40;99.90;;;;;;5037391;28;20045;-75
2022/07/26 07:19:35;;;;;;;5.75;0.90;;;16.50;99.90;;;;;;5037318;28;20049;-76
2022/07/26 07:22:02;;;;;;;8.18;1.27;;;16.50;99.90;;;;;;5031238;28;20501;-77
2022/07/26 07:24:27;;;;;;;5.60;0.90;;;16.70;99.90;;;;;;5030222;28;20501;-77
2022/07/26 07:26:53;;;;;;;8.35;1.10;;;16.80;99.90;;;;;;5020871;28;20060;-77
2022/07/26 07:29:19;;;;;;;5.57;1.02;;;16.90;99.90;;;;;;5047451;28;20049;-76
2022/07/26 07:31:46;;;;;;;10.68;1.70;;;16.90;99.90;;;;;;5030865;28;20067;-77
2022/07/26 07:34:13;;;;;;;6.82;1.30;;;16.90;99.90;;;;;;5036927;28;20040;-76
2022/07/26 07:36:38;;;;;;;6.82;1.20;;;16.90;99.90;;;;;;5023274;28;20510;-77
2022/07/26 07:39:04;;;;;;;7.70;1.23;;;16.80;99.90;;;;;;5038020;28;20067;-76
2022/07/26 07:41:33;;;;;;;9.05;1.30;;;16.80;99.90;;;;;;5034554;28;20056;-77
2022/07/26 07:43:59;;;;;;;8.50;1.33;;;16.70;99.90;;;;;;5041093;28;20863;-77
2022/07/26 07:46:25;;;;;;;6.18;1.25;;;16.60;99.90;;;;;;5033953;28;20047;-77
2022/07/26 07:48:50;;;;;;;5.05;1.20;;;16.70;99.90;;;;;;5032802;28;20112;-77
2022/07/26 07:51:16;;;;;;;7.75;1.27;;;16.60;99.90;;;;;;5038943;28;20135;-75
2022/07/26 07:53:42;;;;;;;6.72;1.02;;;16.60;99.90;;;;;;5048428;28;20294;-76
2022/07/26 07:56:07;;;;;;;6.00;1.08;;;16.60;99.90;;;;;;5039987;28;20044;-78
2022/07/26 07:58:33;;;;;;;5.70;0.80;;;16.70;99.90;;;;;;5036538;28;20049;-76
2022/07/26 08:00:59;;;;;;;6.47;1.20;;;16.80;99.90;;;;;;5051646;28;20045;-76
2022/07/26 08:03:24;;;;;;;7.00;1.23;;;16.80;99.90;;;;;;5036864;28;20041;-79
2022/07/26 08:05:50;;;;;;;6.95;1.10;;;17.00;99.90;;;;;;5038016;28;20041;-76
2022/07/26 08:08:16;;;;;;;5.25;1.25;;;17.30;99.90;;;;;;5021484;28;20044;-76
2022/07/26 08:10:42;;;;;;;8.60;1.33;;;17.40;99.90;;;;;;5021784;28;20404;-76
2022/07/26 08:13:08;;;;;;;4.75;0.90;;;17.40;99.90;;;;;;5046457;28;20045;-76
2022/07/26 08:15:33;;;;;;;4.88;0.98;;;17.50;99.90;;;;;;5044210;28;20049;-77
2022/07/26 08:17:59;;;;;;;5.57;1.20;;;17.50;99.90;;;;;;5020472;28;20040;-77
2022/07/26 08:20:25;;;;;;;6.97;1.25;;;17.50;99.90;;;;;;5036504;28;20400;-77
2022/07/26 08:22:51;;;;;;;6.93;0.98;;;17.50;99.90;;;;;;5037432;28;20373;-76
2022/07/26 08:25:17;;;;;;;9.95;1.52;;;17.50;99.90;;;;;;5036770;28;20041;-76
2022/07/26 08:27:42;;;;;;;14.05;2.03;;;17.40;99.90;;;;;;5017624;28;20045;-77
2022/07/26 08:30:09;;;;;;;14.63;1.90;;;17.40;99.90;;;;;;5040482;28;20041;-77
2022/07/26 08:32:34;;;;;;;7.57;1.70;;;17.40;99.90;;;;;;5034133;28;20041;-76
2022/07/26 08:35:00;;;;;;;8.00;1.30;;;17.40;99.90;;;;;;5039889;28;20045;-76
2022/07/26 08:37:26;;;;;;;6.90;1.13;;;17.50;99.90;;;;;;5016860;28;20049;-76
2022/07/26 08:39:51;;;;;;;7.15;1.38;;;17.40;99.90;;;;;;5040296;28;20492;-76
2022/07/26 08:42:21;;;;;;;6.95;1.55;;;17.50;99.90;;;;;;5031657;28;20424;-77
2022/07/26 08:44:47;;;;;;;8.77;1.67;;;17.50;99.90;;;;;;5037754;28;20514;-76
2022/07/26 08:47:14;;;;;;;10.05;2.03;;;17.40;99.90;;;;;;5021260;28;20095;-76
2022/07/26 08:49:42;;;;;;;8.30;2.08;;;17.20;99.90;;;;;;5037137;28;20044;-76
2022/07/26 08:52:09;;;;;;;13.75;2.10;;;17.10;99.90;;;;;;5033993;28;20049;-77
2022/07/26 08:54:36;;;;;;;10.32;1.77;;;17.10;99.90;;;;;;5030264;28;20048;-77
2022/07/26 08:57:02;;;;;;;10.25;2.22;;;17.10;99.90;;;;;;5026104;28;20464;-76
2022/07/26 08:59:29;;;;;;;11.63;1.83;;;17.20;99.90;;;;;;5029720;28;20116;-76
2022/07/26 09:02:04;;;;;;;14.35;2.40;;;17.10;99.90;;;;;;5044669;28;20051;-76
2022/07/26 09:04:34;;;;;;;12.02;2.50;;;17.10;99.90;;;;;;5037555;28;20525;-76
2022/07/26 09:07:09;;;;;;;12.60;2.63;;;17.10;99.90;;;;;;5033270;28;20551;-77
2022/07/26 09:09:55;;;;;;;15.90;2.80;;;17.10;99.90;;;;;;5049074;28;20041;-73
2022/07/26 09:12:22;;;;;;;15.52;2.75;;;17.20;99.90;;;;;;5039131;28;20657;-76
2022/07/26 09:14:48;;;;;;;16.55;2.60;;;17.30;99.90;;;;;;5004754;28;20506;-77
2022/07/26 09:17:17;;;;;;;15.35;2.85;;;17.40;99.90;;;;;;5032214;28;20045;-76
2022/07/26 09:19:43;;;;;;;10.27;2.83;;;17.40;99.90;;;;;;5031404;28;20052;-77
2022/07/26 09:22:12;;;;;;;12.60;2.83;;;17.40;99.90;;;;;;5027335;28;20562;-76
2022/07/26 09:24:40;;;;;;;10.82;2.58;;;17.40;99.90;;;;;;5031143;28;20564;-76
2022/07/26 09:27:08;;;;;;;14.98;2.30;;;17.30;99.90;;;;;;5015721;28;20427;-75
2022/07/26 09:29:47;;;;;;;10.80;2.22;;;17.30;99.90;;;;;;5044985;28;20090;-76
2022/07/26 09:32:15;;;;;;;9.27;2.05;;;17.20;99.90;;;;;;5047686;28;20091;-75
2022/07/26 09:34:42;;;;;;;12.23;2.60;;;17.30;99.90;;;;;;5050633;28;20045;-76
2022/07/26 09:37:08;;;;;;;11.00;2.15;;;17.20;99.90;;;;;;5032959;28;20548;-75
2022/07/26 09:39:56;;;;;;;14.25;1.90;;;17.20;99.90;;;;;;5035130;28;20160;-76
2022/07/26 09:42:23;;;;;;;9.63;1.92;;;17.30;99.90;;;;;;5037986;28;20045;-76
2022/07/26 09:44:49;;;;;;;6.78;1.77;;;17.30;99.90;;;;;;5050176;28;20033;-76
2022/07/26 09:47:15;;;;;;;6.88;1.30;;;17.50;99.90;;;;;;5036328;28;20075;-76
2022/07/26 09:49:41;;;;;;;13.52;2.10;;;17.60;99.90;;;;;;5045836;28;20400;-77
2022/07/26 09:52:15;;;;;;;9.88;2.20;;;17.70;99.90;;;;;;5043426;28;20049;-76
2022/07/26 09:54:44;;;;;;;14.52;2.00;;;17.70;99.90;;;;;;5051561;28;20036;-76
2022/07/26 09:57:11;;;;;;;8.18;1.60;;;17.60;99.90;;;;;;5035088;28;20048;-76
2022/07/26 09:59:36;;;;;;;12.32;2.00;;;17.70;99.90;;;;;;5044310;28;20428;-76
2022/07/26 10:02:02;;;;;;;7.75;1.73;;;17.80;99.90;;;;;;5046432;28;20049;-77
2022/07/26 10:04:28;;;;;;;7.47;1.55;;;17.70;99.90;;;;;;5038653;28;20045;-77
2022/07/26 10:06:57;;;;;;;9.55;1.48;;;17.70;99.90;;;;;;5035572;28;20122;-77
2022/07/26 10:09:23;;;;;;;6.45;1.55;;;17.60;99.90;;;;;;5043654;28;20053;-76
2022/07/26 10:11:52;;;;;;;11.07;1.92;;;17.70;99.90;;;;;;5054714;28;20119;-76
2022/07/26 10:14:38;;;;;;;8.20;1.65;;;17.80;99.90;;;;;;5019973;28;20045;-77
2022/07/26 10:17:28;;;;;;;10.10;1.75;;;17.90;99.90;;;;;;5033642;28;20124;-74
2022/07/26 10:20:09;;;;;;;5.97;1.33;;;17.70;99.90;;;;;;5034901;28;20143;-75
2022/07/26 10:22:46;;;;;;;7.72;1.40;;;17.70;99.90;;;;;;5051951;28;20072;-77
2022/07/26 10:25:18;;;;;;;8.00;1.67;;;17.80;99.90;;;;;;5034455;28;20053;-76
2022/07/26 10:27:44;;;;;;;9.68;1.58;;;18.00;99.90;;;;;;5018313;28;20041;-76
2022/07/26 10:30:21;;;;;;;6.60;1.55;;;18.30;99.90;;;;;;5052584;28;20041;-76
2022/07/26 10:32:50;;;;;;;5.47;1.30;;;18.20;99.90;;;;;;5049590;28;20057;-76
2022/07/26 10:35:35;;;;;;;7.35;1.20;;;18.00;99.90;;;;;;5039188;28;20120;-77
2022/07/26 10:38:02;;;;;;;5.32;1.33;;;18.00;99.90;;;;;;5020924;28;20058;-76
2022/07/26 10:40:30;;;;;;;5.88;1.05;;;18.10;99.90;;;;;;5038365;28;20572;-76
2022/07/26 10:43:16;;;;;;;5.63;1.10;;;18.20;99.90;;;;;;5033868;28;20057;-76
2022/07/26 10:45:43;;;;;;;9.52;1.55;;;18.40;99.90;;;;;;5034077;28;20041;-74
2022/07/26 10:48:11;;;;;;;7.95;1.38;;;18.50;99.90;;;;;;5028007;28;20057;-76
2022/07/26 10:50:37;;;;;;;10.60;1.27;;;18.50;99.90;;;;;;5030808;28;20046;-76
2022/07/26 10:53:03;;;;;;;8.95;1.40;;;18.60;99.90;;;;;;5031351;28;20059;-76
2022/07/26 10:55:29;;;;;;;7.07;1.10;;;18.40;99.90;;;;;;5044510;28;20183;-77
2022/07/26 10:57:55;;;;;;;5.97;1.17;;;18.70;99.90;;;;;;5027219;28;20649;-76
2022/07/26 11:00:24;;;;;;;6.50;1.13;;;18.70;99.90;;;;;;4996353;28;20053;-77
2022/07/26 11:02:53;;;;;;;3.83;0.75;;;18.60;99.90;;;;;;5001526;28;20053;-75
2022/07/26 11:05:20;;;;;;;4.10;1.00;;;18.60;99.90;;;;;;5041699;28;20584;-76
2022/07/26 11:08:04;;;;;;;4.40;0.88;;;18.70;99.90;;;;;;5022201;28;20080;-75
2022/07/26 11:10:33;;;;;;;4.50;0.73;;;18.60;99.90;;;;;;5037443;28;20092;-75
2022/07/26 11:13:09;;;;;;;4.57;0.77;;;18.50;99.90;;;;;;5042028;28;20478;-76
2022/07/26 11:15:37;;;;;;;8.63;0.95;;;18.60;99.90;;;;;;5042307;28;20160;-76
2022/07/26 11:18:34;;;;;;;6.35;0.80;;;18.70;99.90;;;;;;5027509;28;20052;-75
2022/07/26 11:21:10;;;;;;;9.25;0.90;;;18.60;99.90;;;;;;5038875;28;20045;-75
2022/07/26 11:23:38;;;;;;;3.33;0.60;;;18.70;99.90;;;;;;5039736;28;20136;-75
2022/07/26 11:26:22;;;;;;;5.25;1.10;;;18.80;99.90;;;;;;5038092;28;20083;-75
2022/07/26 11:28:49;;;;;;;5.80;0.98;;;19.00;99.90;;;;;;5039357;28;20053;-75
2022/07/26 11:31:16;;;;;;;9.27;0.93;;;18.60;99.90;;;;;;5042721;28;20110;-75
2022/07/26 11:33:45;;;;;;;6.30;0.82;;;18.50;99.90;;;;;;5040727;28;20513;-75
2022/07/26 11:36:11;;;;;;;5.75;0.85;;;18.40;99.90;;;;;;5017635;28;20288;-76
2022/07/26 11:38:50;;;;;;;4.10;0.75;;;18.40;99.90;;;;;;5026585;28;20065;-76
2022/07/26 11:41:24;;;;;;;3.58;0.60;;;18.40;99.90;;;;;;5039345;28;20527;-76
2022/07/26 11:43:52;;;;;;;5.50;0.90;;;18.50;99.90;;;;;;5033875;28;20052;-75
2022/07/26 11:46:19;;;;;;;3.05;0.70;;;18.60;99.90;;;;;;5032819;28;20388;-78
2022/07/26 11:48:50;;;;;;;6.00;1.13;;;18.80;99.90;;;;;;5030064;28;20524;-76
2022/07/26 11:51:21;;;;;;;5.93;1.13;;;18.80;99.90;;;;;;5036673;28;20124;-74
2022/07/26 11:53:47;;;;;;;8.35;1.30;;;18.80;99.90;;;;;;5032911;28;20377;-76
2022/07/26 11:56:21;;;;;;;6.25;0.80;;;18.80;99.90;;;;;;5025261;28;20051;-76
2022/07/26 11:58:50;;;;;;;3.33;0.88;;;18.90;99.90;;;;;;5030204;28;20077;-75
2022/07/26 12:01:18;;;;;;;6.55;1.05;;;18.70;99.90;;;;;;5039933;28;20038;-75
2022/07/26 12:03:49;;;;;;;3.92;0.82;;;18.90;99.90;;;;;;5031533;28;20052;-74
2022/07/26 12:06:18;;;;;;;5.57;0.90;;;18.80;99.90;;;;;;5024527;28;20042;-75
2022/07/26 12:08:45;;;;;;;7.90;1.23;;;19.10;99.90;;;;;;5028124;28;20045;-76
2022/07/26 12:11:13;;;;;;;6.90;1.55;;;19.00;99.90;;;;;;5034885;28;20136;-75
2022/07/26 12:13:48;;;;;;;8.57;1.40;;;18.90;99.90;;;;;;5030751;28;20592;-77
2022/07/26 12:16:46;;;;;;;5.35;1.25;;;19.00;99.90;;;;;;5028911;28;20103;-75
2022/07/26 12:19:17;;;;;;;6.75;1.30;;;19.00;99.90;;;;;;5042682;28;20096;-76
2022/07/26 12:21:48;;;;;;;7.15;1.30;;;19.10;99.90;;;;;;5035188;28;20435;-75
2022/07/26 12:24:36;;;;;;;7.20;1.20;;;18.90;99.90;;;;;;5033351;28;20053;-76
2022/07/26 12:27:08;;;;;;;5.93;1.00;;;18.60;99.90;;;;;;5018766;28;20049;-74
2022/07/26 12:29:36;;;;;;;;;;;18.70;99.90;;;;;;5042520;28;20053;-76
2022/07/26 12:32:07;;;;;;;6.60;0.95;;;18.70;99.90;;;;;;5034295;28;19975;-76
2022/07/26 12:34:34;;;;;;;;;;;18.70;99.90;;;;;;5032493;28;20119;-75
2022/07/26 12:37:15;;;;;;;7.13;0.82;;;18.80;99.90;;;;;;5015974;28;19975;-75
2022/07/26 12:39:42;;;;;;;10.30;1.02;;;18.90;99.90;;;;;;5029019;28;20060;-76
2022/07/26 12:42:26;;;;;;;5.85;1.00;;;18.80;99.90;;;;;;5021354;28;20067;-76
2022/07/26 12:44:52;;;;;;;7.32;1.15;;;18.70;99.90;;;;;;5024822;28;20135;-76
2022/07/26 12:47:17;;;;;;;6.43;1.17;;;18.80;99.90;;;;;;5015996;28;20038;-76